sensor_id;sensor_type;location;lat;lon;timestamp;temperature;humidity
8152;DHT22;4117;53.622;9.958;2022-11-20T00:01:29;1.60;24.30
8152;DHT22;4117;53.622;9.958;2022-11-20T00:03:57;1.60;22.10
8152;DHT22;4117;53.622;9.958;2022-11-20T00:06:25;1.60;21.90
8152;DHT22;4117;53.622;9.958;2022-11-20T00:08:54;1.60;24.10
8152;DHT22;4117;53.622;9.958;2022-11-20T00:11:24;1.60;24.40
8152;DHT22;4117;53.622;9.958;2022-11-20T00:13:52;1.60;23.50
8152;DHT22;4117;53.622;9.958;2022-11-20T00:16:21;1.60;25.10
8152;DHT22;4117;53.622;9.958;2022-11-20T00:18:50;1.60;26.50
8152;DHT22;4117;53.622;9.958;2022-11-20T00:21:18;1.60;25.40
8152;DHT22;4117;53.622;9.958;2022-11-20T00:23:47;1.50;26.60
8152;DHT22;4117;53.622;9.958;2022-11-20T00:26:17;1.50;25.90
8152;DHT22;4117;53.622;9.958;2022-11-20T00:28:48;1.50;26.80
8152;DHT22;4117;53.622;9.958;2022-11-20T00:31:16;1.60;26.90
8152;DHT22;4117;53.622;9.958;2022-11-20T00:33:44;1.50;29.00
8152;DHT22;4117;53.622;9.958;2022-11-20T00:36:14;1.50;27.30
8152;DHT22;4117;53.622;9.958;2022-11-20T00:38:41;1.50;26.80
8152;DHT22;4117;53.622;9.958;2022-11-20T00:41:09;1.50;26.60
8152;DHT22;4117;53.622;9.958;2022-11-20T00:43:37;1.60;27.30
8152;DHT22;4117;53.622;9.958;2022-11-20T00:46:06;1.60;26.80
8152;DHT22;4117;53.622;9.958;2022-11-20T00:48:33;1.60;27.30
8152;DHT22;4117;53.622;9.958;2022-11-20T00:51:00;1.60;26.60
8152;DHT22;4117;53.622;9.958;2022-11-20T00:53:29;1.60;26.90
8152;DHT22;4117;53.622;9.958;2022-11-20T00:55:57;1.50;26.70
8152;DHT22;4117;53.622;9.958;2022-11-20T00:58:27;1.50;27.80
8152;DHT22;4117;53.622;9.958;2022-11-20T01:01:00;1.50;28.50
8152;DHT22;4117;53.622;9.958;2022-11-20T01:03:30;1.50;28.90
8152;DHT22;4117;53.622;9.958;2022-11-20T01:06:00;1.40;29.70
8152;DHT22;4117;53.622;9.958;2022-11-20T01:08:31;1.40;31.90
8152;DHT22;4117;53.622;9.958;2022-11-20T01:11:01;1.40;31.90
8152;DHT22;4117;53.622;9.958;2022-11-20T01:13:29;1.40;31.90
8152;DHT22;4117;53.622;9.958;2022-11-20T01:16:07;1.40;31.90
8152;DHT22;4117;53.622;9.958;2022-11-20T01:18:34;1.40;33.10
8152;DHT22;4117;53.622;9.958;2022-11-20T01:21:02;1.30;36.30
8152;DHT22;4117;53.622;9.958;2022-11-20T01:23:35;1.40;33.90
8152;DHT22;4117;53.622;9.958;2022-11-20T01:26:04;1.40;38.40
8152;DHT22;4117;53.622;9.958;2022-11-20T01:28:31;1.40;37.00
8152;DHT22;4117;53.622;9.958;2022-11-20T01:30:58;1.40;37.10
8152;DHT22;4117;53.622;9.958;2022-11-20T01:33:26;1.40;37.30
8152;DHT22;4117;53.622;9.958;2022-11-20T01:35:53;1.40;38.40
8152;DHT22;4117;53.622;9.958;2022-11-20T01:38:29;1.40;39.70
8152;DHT22;4117;53.622;9.958;2022-11-20T01:40:57;1.40;44.10
8152;DHT22;4117;53.622;9.958;2022-11-20T01:43:24;1.40;44.20
8152;DHT22;4117;53.622;9.958;2022-11-20T01:46:06;1.40;44.20
8152;DHT22;4117;53.622;9.958;2022-11-20T01:48:36;1.40;44.20
8152;DHT22;4117;53.622;9.958;2022-11-20T01:51:08;1.40;45.60
8152;DHT22;4117;53.622;9.958;2022-11-20T01:53:37;1.40;48.10
8152;DHT22;4117;53.622;9.958;2022-11-20T01:56:09;1.50;47.70
8152;DHT22;4117;53.622;9.958;2022-11-20T01:58:42;1.40;48.10
8152;DHT22;4117;53.622;9.958;2022-11-20T02:01:11;1.40;47.50
8152;DHT22;4117;53.622;9.958;2022-11-20T02:03:39;1.40;48.50
8152;DHT22;4117;53.622;9.958;2022-11-20T02:06:11;1.50;49.90
8152;DHT22;4117;53.622;9.958;2022-11-20T02:08:39;1.40;49.20
8152;DHT22;4117;53.622;9.958;2022-11-20T02:11:07;1.40;47.90
8152;DHT22;4117;53.622;9.958;2022-11-20T02:13:35;1.40;47.60
8152;DHT22;4117;53.622;9.958;2022-11-20T02:16:16;1.40;48.10
8152;DHT22;4117;53.622;9.958;2022-11-20T02:18:46;1.40;50.20
8152;DHT22;4117;53.622;9.958;2022-11-20T02:21:25;1.40;49.60
8152;DHT22;4117;53.622;9.958;2022-11-20T02:24:01;1.40;49.80
8152;DHT22;4117;53.622;9.958;2022-11-20T02:26:31;1.50;51.20
8152;DHT22;4117;53.622;9.958;2022-11-20T02:28:59;1.50;50.30
8152;DHT22;4117;53.622;9.958;2022-11-20T02:31:27;1.50;50.20
8152;DHT22;4117;53.622;9.958;2022-11-20T02:33:55;1.50;50.90
8152;DHT22;4117;53.622;9.958;2022-11-20T02:36:25;1.50;51.10
8152;DHT22;4117;53.622;9.958;2022-11-20T02:38:53;1.50;51.80
8152;DHT22;4117;53.622;9.958;2022-11-20T02:41:22;1.50;48.30
8152;DHT22;4117;53.622;9.958;2022-11-20T02:43:56;1.50;47.70
8152;DHT22;4117;53.622;9.958;2022-11-20T02:46:23;1.50;49.40
8152;DHT22;4117;53.622;9.958;2022-11-20T02:48:50;1.50;47.90
8152;DHT22;4117;53.622;9.958;2022-11-20T02:51:18;1.40;48.90
8152;DHT22;4117;53.622;9.958;2022-11-20T02:53:45;1.50;48.40
8152;DHT22;4117;53.622;9.958;2022-11-20T02:56:12;1.40;49.20
8152;DHT22;4117;53.622;9.958;2022-11-20T02:58:41;1.40;49.00
8152;DHT22;4117;53.622;9.958;2022-11-20T03:01:07;1.50;48.20
8152;DHT22;4117;53.622;9.958;2022-11-20T03:03:34;1.40;48.30
8152;DHT22;4117;53.622;9.958;2022-11-20T03:06:01;1.30;47.20
8152;DHT22;4117;53.622;9.958;2022-11-20T03:08:28;1.40;48.40
8152;DHT22;4117;53.622;9.958;2022-11-20T03:10:55;1.30;48.10
8152;DHT22;4117;53.622;9.958;2022-11-20T03:13:22;1.40;52.30
8152;DHT22;4117;53.622;9.958;2022-11-20T03:15:52;1.40;53.10
8152;DHT22;4117;53.622;9.958;2022-11-20T03:18:19;1.40;53.80
8152;DHT22;4117;53.622;9.958;2022-11-20T03:20:46;1.40;55.20
8152;DHT22;4117;53.622;9.958;2022-11-20T03:23:13;1.40;55.90
8152;DHT22;4117;53.622;9.958;2022-11-20T03:25:40;1.40;51.40
8152;DHT22;4117;53.622;9.958;2022-11-20T03:28:07;1.40;51.10
8152;DHT22;4117;53.622;9.958;2022-11-20T03:30:34;1.50;52.00
8152;DHT22;4117;53.622;9.958;2022-11-20T03:33:03;1.40;54.30
8152;DHT22;4117;53.622;9.958;2022-11-20T03:35:30;1.40;51.00
8152;DHT22;4117;53.622;9.958;2022-11-20T03:37:57;1.40;55.60
8152;DHT22;4117;53.622;9.958;2022-11-20T03:40:24;1.40;53.00
8152;DHT22;4117;53.622;9.958;2022-11-20T03:42:51;1.40;56.00
8152;DHT22;4117;53.622;9.958;2022-11-20T03:45:19;1.40;51.10
8152;DHT22;4117;53.622;9.958;2022-11-20T03:47:46;1.40;51.70
8152;DHT22;4117;53.622;9.958;2022-11-20T03:50:15;1.40;52.60
8152;DHT22;4117;53.622;9.958;2022-11-20T03:52:41;1.40;55.60
8152;DHT22;4117;53.622;9.958;2022-11-20T03:55:08;1.40;52.30
8152;DHT22;4117;53.622;9.958;2022-11-20T03:57:35;1.50;50.20
8152;DHT22;4117;53.622;9.958;2022-11-20T04:00:03;1.40;52.30
8152;DHT22;4117;53.622;9.958;2022-11-20T04:02:30;1.40;54.90
8152;DHT22;4117;53.622;9.958;2022-11-20T04:04:57;1.50;54.20
8152;DHT22;4117;53.622;9.958;2022-11-20T04:07:25;1.50;51.50
8152;DHT22;4117;53.622;9.958;2022-11-20T04:09:52;1.50;50.20
8152;DHT22;4117;53.622;9.958;2022-11-20T04:12:19;1.50;50.80
8152;DHT22;4117;53.622;9.958;2022-11-20T04:14:46;1.50;53.40
8152;DHT22;4117;53.622;9.958;2022-11-20T04:17:13;1.50;51.70
8152;DHT22;4117;53.622;9.958;2022-11-20T04:19:40;1.50;50.80
8152;DHT22;4117;53.622;9.958;2022-11-20T04:22:07;1.50;50.20
8152;DHT22;4117;53.622;9.958;2022-11-20T04:24:35;1.50;50.10
8152;DHT22;4117;53.622;9.958;2022-11-20T04:27:02;1.50;50.60
8152;DHT22;4117;53.622;9.958;2022-11-20T04:29:29;1.50;51.50
8152;DHT22;4117;53.622;9.958;2022-11-20T04:31:56;1.50;50.30
8152;DHT22;4117;53.622;9.958;2022-11-20T04:34:23;1.40;50.40
8152;DHT22;4117;53.622;9.958;2022-11-20T04:36:50;1.40;52.40
8152;DHT22;4117;53.622;9.958;2022-11-20T04:39:17;1.50;52.00
8152;DHT22;4117;53.622;9.958;2022-11-20T04:41:45;1.50;50.60
8152;DHT22;4117;53.622;9.958;2022-11-20T04:44:12;1.50;51.00
8152;DHT22;4117;53.622;9.958;2022-11-20T04:46:41;1.50;50.60
8152;DHT22;4117;53.622;9.958;2022-11-20T04:49:13;1.50;50.20
8152;DHT22;4117;53.622;9.958;2022-11-20T04:51:40;1.50;50.80
8152;DHT22;4117;53.622;9.958;2022-11-20T04:54:07;1.50;50.20
8152;DHT22;4117;53.622;9.958;2022-11-20T04:56:34;1.50;50.10
8152;DHT22;4117;53.622;9.958;2022-11-20T04:59:04;1.60;50.10
8152;DHT22;4117;53.622;9.958;2022-11-20T05:01:31;1.50;50.00
8152;DHT22;4117;53.622;9.958;2022-11-20T05:04:00;1.50;50.20
8152;DHT22;4117;53.622;9.958;2022-11-20T05:06:27;1.50;49.30
8152;DHT22;4117;53.622;9.958;2022-11-20T05:08:54;1.50;50.00
8152;DHT22;4117;53.622;9.958;2022-11-20T05:11:21;1.50;48.00
8152;DHT22;4117;53.622;9.958;2022-11-20T05:13:49;1.60;50.40
8152;DHT22;4117;53.622;9.958;2022-11-20T05:16:19;1.60;49.90
8152;DHT22;4117;53.622;9.958;2022-11-20T05:18:46;1.50;49.90
8152;DHT22;4117;53.622;9.958;2022-11-20T05:21:14;1.50;48.80
8152;DHT22;4117;53.622;9.958;2022-11-20T05:23:42;1.50;48.30
8152;DHT22;4117;53.622;9.958;2022-11-20T05:26:13;1.50;50.20
8152;DHT22;4117;53.622;9.958;2022-11-20T05:28:40;1.50;49.10
8152;DHT22;4117;53.622;9.958;2022-11-20T05:31:08;1.50;50.10
8152;DHT22;4117;53.622;9.958;2022-11-20T05:33:39;1.50;49.00
8152;DHT22;4117;53.622;9.958;2022-11-20T05:36:07;1.50;50.10
8152;DHT22;4117;53.622;9.958;2022-11-20T05:38:35;1.50;50.50
8152;DHT22;4117;53.622;9.958;2022-11-20T05:41:06;1.40;52.60
8152;DHT22;4117;53.622;9.958;2022-11-20T05:43:33;1.40;51.40
8152;DHT22;4117;53.622;9.958;2022-11-20T05:46:01;1.40;52.70
8152;DHT22;4117;53.622;9.958;2022-11-20T05:48:28;1.40;50.20
8152;DHT22;4117;53.622;9.958;2022-11-20T05:50:58;1.40;52.20
8152;DHT22;4117;53.622;9.958;2022-11-20T05:53:25;1.40;50.40
8152;DHT22;4117;53.622;9.958;2022-11-20T05:55:59;1.40;53.60
8152;DHT22;4117;53.622;9.958;2022-11-20T05:58:26;1.40;50.40
8152;DHT22;4117;53.622;9.958;2022-11-20T06:00:53;1.40;52.90
8152;DHT22;4117;53.622;9.958;2022-11-20T06:03:20;1.40;53.70
8152;DHT22;4117;53.622;9.958;2022-11-20T06:05:47;1.40;52.50
8152;DHT22;4117;53.622;9.958;2022-11-20T06:08:15;1.30;54.40
8152;DHT22;4117;53.622;9.958;2022-11-20T06:10:42;1.30;52.60
8152;DHT22;4117;53.622;9.958;2022-11-20T06:13:09;1.30;53.50
8152;DHT22;4117;53.622;9.958;2022-11-20T06:15:36;1.30;55.90
8152;DHT22;4117;53.622;9.958;2022-11-20T06:18:03;1.40;56.00
8152;DHT22;4117;53.622;9.958;2022-11-20T06:20:30;1.30;55.90
8152;DHT22;4117;53.622;9.958;2022-11-20T06:22:57;1.40;56.00
8152;DHT22;4117;53.622;9.958;2022-11-20T06:25:25;1.30;55.90
8152;DHT22;4117;53.622;9.958;2022-11-20T06:27:52;1.30;55.90
8152;DHT22;4117;53.622;9.958;2022-11-20T06:30:19;1.30;55.90
8152;DHT22;4117;53.622;9.958;2022-11-20T06:32:46;1.30;55.90
8152;DHT22;4117;53.622;9.958;2022-11-20T06:35:13;1.30;55.90
8152;DHT22;4117;53.622;9.958;2022-11-20T06:37:40;1.30;55.90
8152;DHT22;4117;53.622;9.958;2022-11-20T06:40:08;1.30;55.90
8152;DHT22;4117;53.622;9.958;2022-11-20T06:42:37;1.30;55.90
8152;DHT22;4117;53.622;9.958;2022-11-20T06:45:04;1.30;55.90
8152;DHT22;4117;53.622;9.958;2022-11-20T06:47:31;1.20;55.80
8152;DHT22;4117;53.622;9.958;2022-11-20T06:49:59;1.20;55.80
8152;DHT22;4117;53.622;9.958;2022-11-20T06:52:26;1.20;55.80
8152;DHT22;4117;53.622;9.958;2022-11-20T06:54:53;1.20;55.80
8152;DHT22;4117;53.622;9.958;2022-11-20T06:57:20;1.20;55.80
8152;DHT22;4117;53.622;9.958;2022-11-20T06:59:48;1.20;55.80
8152;DHT22;4117;53.622;9.958;2022-11-20T07:02:15;1.20;55.80
8152;DHT22;4117;53.622;9.958;2022-11-20T07:04:42;1.20;55.80
8152;DHT22;4117;53.622;9.958;2022-11-20T07:07:09;1.20;55.80
8152;DHT22;4117;53.622;9.958;2022-11-20T07:09:36;1.10;55.80
8152;DHT22;4117;53.622;9.958;2022-11-20T07:12:03;1.10;56.40
8152;DHT22;4117;53.622;9.958;2022-11-20T07:14:30;1.10;55.70
8152;DHT22;4117;53.622;9.958;2022-11-20T07:16:58;1.10;55.70
8152;DHT22;4117;53.622;9.958;2022-11-20T07:19:25;1.10;55.70
8152;DHT22;4117;53.622;9.958;2022-11-20T07:21:52;1.10;57.70
8152;DHT22;4117;53.622;9.958;2022-11-20T07:24:19;1.10;58.20
8152;DHT22;4117;53.622;9.958;2022-11-20T07:26:47;1.10;58.20
8152;DHT22;4117;53.622;9.958;2022-11-20T07:29:14;1.10;58.50
8152;DHT22;4117;53.622;9.958;2022-11-20T07:31:42;1.10;57.90
8152;DHT22;4117;53.622;9.958;2022-11-20T07:34:10;1.10;59.00
8152;DHT22;4117;53.622;9.958;2022-11-20T07:36:37;1.10;59.00
8152;DHT22;4117;53.622;9.958;2022-11-20T07:39:04;1.10;61.70
8152;DHT22;4117;53.622;9.958;2022-11-20T07:41:32;1.20;62.30
8152;DHT22;4117;53.622;9.958;2022-11-20T07:43:59;1.20;61.80
8152;DHT22;4117;53.622;9.958;2022-11-20T07:46:26;1.20;62.70
8152;DHT22;4117;53.622;9.958;2022-11-20T07:48:53;1.30;62.70
8152;DHT22;4117;53.622;9.958;2022-11-20T07:51:22;1.20;61.30
8152;DHT22;4117;53.622;9.958;2022-11-20T07:53:50;1.20;61.60
8152;DHT22;4117;53.622;9.958;2022-11-20T07:56:17;1.20;62.20
8152;DHT22;4117;53.622;9.958;2022-11-20T07:58:44;1.10;59.80
8152;DHT22;4117;53.622;9.958;2022-11-20T08:01:11;1.10;61.00
8152;DHT22;4117;53.622;9.958;2022-11-20T08:03:38;1.20;59.00
8152;DHT22;4117;53.622;9.958;2022-11-20T08:06:06;1.20;59.60
8152;DHT22;4117;53.622;9.958;2022-11-20T08:08:34;1.20;62.00
8152;DHT22;4117;53.622;9.958;2022-11-20T08:11:01;1.20;59.10
8152;DHT22;4117;53.622;9.958;2022-11-20T08:13:42;1.30;61.30
8152;DHT22;4117;53.622;9.958;2022-11-20T08:16:26;1.30;61.80
8152;DHT22;4117;53.622;9.958;2022-11-20T08:18:53;1.30;59.50
8152;DHT22;4117;53.622;9.958;2022-11-20T08:21:20;1.20;56.00
8152;DHT22;4117;53.622;9.958;2022-11-20T08:23:49;1.20;56.30
8152;DHT22;4117;53.622;9.958;2022-11-20T08:26:16;1.30;56.00
8152;DHT22;4117;53.622;9.958;2022-11-20T08:28:43;1.30;58.60
8152;DHT22;4117;53.622;9.958;2022-11-20T08:31:10;1.30;57.10
8152;DHT22;4117;53.622;9.958;2022-11-20T08:33:37;1.30;58.80
8152;DHT22;4117;53.622;9.958;2022-11-20T08:36:05;1.30;56.40
8152;DHT22;4117;53.622;9.958;2022-11-20T08:38:32;1.30;56.10
8152;DHT22;4117;53.622;9.958;2022-11-20T08:41:02;1.20;56.70
8152;DHT22;4117;53.622;9.958;2022-11-20T08:43:46;1.30;58.10
8152;DHT22;4117;53.622;9.958;2022-11-20T08:46:13;1.30;58.80
8152;DHT22;4117;53.622;9.958;2022-11-20T08:48:40;1.30;59.80
8152;DHT22;4117;53.622;9.958;2022-11-20T08:51:07;1.40;58.60
8152;DHT22;4117;53.622;9.958;2022-11-20T08:53:35;1.30;58.00
8152;DHT22;4117;53.622;9.958;2022-11-20T08:56:03;1.40;58.30
8152;DHT22;4117;53.622;9.958;2022-11-20T08:58:30;1.40;60.60
8152;DHT22;4117;53.622;9.958;2022-11-20T09:00:57;1.40;57.40
8152;DHT22;4117;53.622;9.958;2022-11-20T09:03:24;1.40;57.50
8152;DHT22;4117;53.622;9.958;2022-11-20T09:05:57;1.40;59.30
8152;DHT22;4117;53.622;9.958;2022-11-20T09:08:25;1.40;57.10
8152;DHT22;4117;53.622;9.958;2022-11-20T09:10:52;1.40;60.30
8152;DHT22;4117;53.622;9.958;2022-11-20T09:13:21;1.40;61.20
8152;DHT22;4117;53.622;9.958;2022-11-20T09:15:53;1.40;60.70
8152;DHT22;4117;53.622;9.958;2022-11-20T09:18:20;1.40;60.90
8152;DHT22;4117;53.622;9.958;2022-11-20T09:20:47;1.30;61.90
8152;DHT22;4117;53.622;9.958;2022-11-20T09:23:14;1.40;62.00
8152;DHT22;4117;53.622;9.958;2022-11-20T09:25:41;1.50;63.20
8152;DHT22;4117;53.622;9.958;2022-11-20T09:28:09;1.50;63.60
8152;DHT22;4117;53.622;9.958;2022-11-20T09:30:37;1.50;62.10
8152;DHT22;4117;53.622;9.958;2022-11-20T09:33:05;1.50;64.70
8152;DHT22;4117;53.622;9.958;2022-11-20T09:35:32;1.50;62.10
8152;DHT22;4117;53.622;9.958;2022-11-20T09:38:04;1.50;65.30
8152;DHT22;4117;53.622;9.958;2022-11-20T09:40:31;1.50;62.50
8152;DHT22;4117;53.622;9.958;2022-11-20T09:43:01;1.50;68.60
8152;DHT22;4117;53.622;9.958;2022-11-20T09:45:42;1.50;68.60
8152;DHT22;4117;53.622;9.958;2022-11-20T09:48:20;1.50;68.60
8152;DHT22;4117;53.622;9.958;2022-11-20T09:50:55;1.50;68.60
8152;DHT22;4117;53.622;9.958;2022-11-20T09:53:30;1.60;68.80
8152;DHT22;4117;53.622;9.958;2022-11-20T09:56:01;1.60;68.80
8152;DHT22;4117;53.622;9.958;2022-11-20T09:58:32;1.70;70.60
8152;DHT22;4117;53.622;9.958;2022-11-20T10:01:08;1.70;68.90
8152;DHT22;4117;53.622;9.958;2022-11-20T10:03:41;1.70;68.90
8152;DHT22;4117;53.622;9.958;2022-11-20T10:06:16;1.70;69.60
8152;DHT22;4117;53.622;9.958;2022-11-20T10:08:51;1.70;68.90
8152;DHT22;4117;53.622;9.958;2022-11-20T10:11:27;1.70;68.80
8152;DHT22;4117;53.622;9.958;2022-11-20T10:14:09;1.80;68.90
8152;DHT22;4117;53.622;9.958;2022-11-20T10:16:50;1.80;68.60
8152;DHT22;4117;53.622;9.958;2022-11-20T10:19:30;1.80;68.20
8152;DHT22;4117;53.622;9.958;2022-11-20T10:22:07;1.90;68.80
8152;DHT22;4117;53.622;9.958;2022-11-20T10:24:43;1.90;66.30
8152;DHT22;4117;53.622;9.958;2022-11-20T10:27:39;1.90;65.30
8152;DHT22;4117;53.622;9.958;2022-11-20T10:30:12;1.90;65.10
8152;DHT22;4117;53.622;9.958;2022-11-20T10:32:43;1.90;62.60
8152;DHT22;4117;53.622;9.958;2022-11-20T10:35:20;1.90;60.50
8152;DHT22;4117;53.622;9.958;2022-11-20T10:37:51;1.90;61.10
8152;DHT22;4117;53.622;9.958;2022-11-20T10:40:25;1.90;60.30
8152;DHT22;4117;53.622;9.958;2022-11-20T10:42:56;1.80;56.30
8152;DHT22;4117;53.622;9.958;2022-11-20T10:45:40;1.70;56.20
8152;DHT22;4117;53.622;9.958;2022-11-20T10:48:19;1.80;56.30
8152;DHT22;4117;53.622;9.958;2022-11-20T10:50:59;1.80;56.40
8152;DHT22;4117;53.622;9.958;2022-11-20T10:53:48;1.90;56.40
8152;DHT22;4117;53.622;9.958;2022-11-20T10:56:21;1.80;55.80
8152;DHT22;4117;53.622;9.958;2022-11-20T10:59:00;1.80;56.30
8152;DHT22;4117;53.622;9.958;2022-11-20T11:01:29;1.70;54.30
8152;DHT22;4117;53.622;9.958;2022-11-20T11:03:58;1.80;56.30
8152;DHT22;4117;53.622;9.958;2022-11-20T11:06:33;1.80;56.30
8152;DHT22;4117;53.622;9.958;2022-11-20T11:09:08;1.90;56.20
8152;DHT22;4117;53.622;9.958;2022-11-20T11:11:39;1.90;55.20
8152;DHT22;4117;53.622;9.958;2022-11-20T11:14:06;1.90;53.40
8152;DHT22;4117;53.622;9.958;2022-11-20T11:16:34;1.90;54.40
8152;DHT22;4117;53.622;9.958;2022-11-20T11:19:12;1.90;52.70
8152;DHT22;4117;53.622;9.958;2022-11-20T11:21:46;1.90;53.70
8152;DHT22;4117;53.622;9.958;2022-11-20T11:24:23;1.90;50.50
8152;DHT22;4117;53.622;9.958;2022-11-20T11:26:53;1.90;51.00
8152;DHT22;4117;53.622;9.958;2022-11-20T11:29:21;1.90;50.10
8152;DHT22;4117;53.622;9.958;2022-11-20T11:31:49;1.80;45.20
8152;DHT22;4117;53.622;9.958;2022-11-20T11:34:17;1.90;48.00
8152;DHT22;4117;53.622;9.958;2022-11-20T11:36:54;1.90;50.60
8152;DHT22;4117;53.622;9.958;2022-11-20T11:39:24;1.90;44.70
8152;DHT22;4117;53.622;9.958;2022-11-20T11:41:52;2.00;44.70
8152;DHT22;4117;53.622;9.958;2022-11-20T11:44:21;2.00;42.70
8152;DHT22;4117;53.622;9.958;2022-11-20T11:47:11;1.90;40.80
8152;DHT22;4117;53.622;9.958;2022-11-20T11:49:40;2.00;44.70
8152;DHT22;4117;53.622;9.958;2022-11-20T11:52:12;2.00;44.70
8152;DHT22;4117;53.622;9.958;2022-11-20T11:54:45;2.10;44.70
8152;DHT22;4117;53.622;9.958;2022-11-20T11:57:17;2.00;44.60
8152;DHT22;4117;53.622;9.958;2022-11-20T11:59:54;2.00;44.70
8152;DHT22;4117;53.622;9.958;2022-11-20T12:02:32;2.00;44.70
8152;DHT22;4117;53.622;9.958;2022-11-20T12:05:09;2.10;44.70
8152;DHT22;4117;53.622;9.958;2022-11-20T12:07:41;2.10;44.70
8152;DHT22;4117;53.622;9.958;2022-11-20T12:10:16;2.10;43.80
8152;DHT22;4117;53.622;9.958;2022-11-20T12:12:49;2.20;44.80
8152;DHT22;4117;53.622;9.958;2022-11-20T12:15:26;2.20;44.90
8152;DHT22;4117;53.622;9.958;2022-11-20T12:17:53;2.20;44.70
8152;DHT22;4117;53.622;9.958;2022-11-20T12:20:24;2.20;44.60
8152;DHT22;4117;53.622;9.958;2022-11-20T12:22:56;2.20;39.10
8152;DHT22;4117;53.622;9.958;2022-11-20T12:25:30;2.20;37.70
8152;DHT22;4117;53.622;9.958;2022-11-20T12:31:00;2.30;37.70
8152;DHT22;4117;53.622;9.958;2022-11-20T12:33:53;2.30;32.60
8152;DHT22;4117;53.622;9.958;2022-11-20T12:36:29;2.30;32.60
8152;DHT22;4117;53.622;9.958;2022-11-20T12:39:08;2.30;32.60
8152;DHT22;4117;53.622;9.958;2022-11-20T12:41:53;2.40;32.80
8152;DHT22;4117;53.622;9.958;2022-11-20T12:44:57;2.40;32.70
8152;DHT22;4117;53.622;9.958;2022-11-20T12:47:52;2.40;32.70
8152;DHT22;4117;53.622;9.958;2022-11-20T12:50:30;2.40;32.70
8152;DHT22;4117;53.622;9.958;2022-11-20T12:53:04;2.40;32.70
8152;DHT22;4117;53.622;9.958;2022-11-20T12:55:42;2.40;33.40
8152;DHT22;4117;53.622;9.958;2022-11-20T12:58:17;2.40;30.90
8152;DHT22;4117;53.622;9.958;2022-11-20T13:00:54;2.50;30.10
8152;DHT22;4117;53.622;9.958;2022-11-20T13:03:37;2.50;28.00
8152;DHT22;4117;53.622;9.958;2022-11-20T13:06:11;2.50;26.70
8152;DHT22;4117;53.622;9.958;2022-11-20T13:08:43;2.50;28.50
8152;DHT22;4117;53.622;9.958;2022-11-20T13:11:18;2.50;30.60
8152;DHT22;4117;53.622;9.958;2022-11-20T13:14:02;2.50;27.40
8152;DHT22;4117;53.622;9.958;2022-11-20T13:16:36;2.50;28.70
8152;DHT22;4117;53.622;9.958;2022-11-20T13:19:09;2.60;29.70
8152;DHT22;4117;53.622;9.958;2022-11-20T13:21:38;2.50;26.70
8152;DHT22;4117;53.622;9.958;2022-11-20T13:24:19;2.50;27.70
8152;DHT22;4117;53.622;9.958;2022-11-20T13:26:58;2.60;29.90
8152;DHT22;4117;53.622;9.958;2022-11-20T13:29:26;2.60;29.00
8152;DHT22;4117;53.622;9.958;2022-11-20T13:32:03;2.60;27.40
8152;DHT22;4117;53.622;9.958;2022-11-20T13:34:30;2.60;28.00
8152;DHT22;4117;53.622;9.958;2022-11-20T13:36:58;2.60;26.00
8152;DHT22;4117;53.622;9.958;2022-11-20T13:39:28;2.60;24.20
8152;DHT22;4117;53.622;9.958;2022-11-20T13:41:58;2.50;25.40
8152;DHT22;4117;53.622;9.958;2022-11-20T13:44:29;2.50;23.10
8152;DHT22;4117;53.622;9.958;2022-11-20T13:46:56;2.50;22.40
8152;DHT22;4117;53.622;9.958;2022-11-20T13:49:28;2.50;22.40
8152;DHT22;4117;53.622;9.958;2022-11-20T13:52:04;2.50;22.40
8152;DHT22;4117;53.622;9.958;2022-11-20T13:54:59;2.50;22.40
8152;DHT22;4117;53.622;9.958;2022-11-20T13:57:49;2.50;23.90
8152;DHT22;4117;53.622;9.958;2022-11-20T14:00:20;2.50;24.90
8152;DHT22;4117;53.622;9.958;2022-11-20T14:02:59;2.50;23.60
8152;DHT22;4117;53.622;9.958;2022-11-20T14:05:28;2.50;25.20
8152;DHT22;4117;53.622;9.958;2022-11-20T14:07:57;2.50;22.40
8152;DHT22;4117;53.622;9.958;2022-11-20T14:10:27;2.50;25.10
8152;DHT22;4117;53.622;9.958;2022-11-20T14:12:55;2.50;23.70
8152;DHT22;4117;53.622;9.958;2022-11-20T14:15:27;2.50;22.80
8152;DHT22;4117;53.622;9.958;2022-11-20T14:17:55;2.50;25.60
8152;DHT22;4117;53.622;9.958;2022-11-20T14:20:24;2.50;23.30
8152;DHT22;4117;53.622;9.958;2022-11-20T14:22:53;2.50;24.00
8152;DHT22;4117;53.622;9.958;2022-11-20T14:25:22;2.50;26.40
8152;DHT22;4117;53.622;9.958;2022-11-20T14:27:55;2.50;25.90
8152;DHT22;4117;53.622;9.958;2022-11-20T14:30:24;2.50;27.10
8152;DHT22;4117;53.622;9.958;2022-11-20T14:32:53;2.50;31.30
8152;DHT22;4117;53.622;9.958;2022-11-20T14:35:24;2.50;29.10
8152;DHT22;4117;53.622;9.958;2022-11-20T14:37:51;2.50;29.10
8152;DHT22;4117;53.622;9.958;2022-11-20T14:40:25;2.40;28.60
8152;DHT22;4117;53.622;9.958;2022-11-20T14:42:54;2.40;27.30
8152;DHT22;4117;53.622;9.958;2022-11-20T14:45:22;2.40;31.00
8152;DHT22;4117;53.622;9.958;2022-11-20T14:47:50;2.40;29.50
8152;DHT22;4117;53.622;9.958;2022-11-20T14:50:20;2.40;30.00
8152;DHT22;4117;53.622;9.958;2022-11-20T14:52:53;2.40;28.30
8152;DHT22;4117;53.622;9.958;2022-11-20T14:55:30;2.40;29.10
8152;DHT22;4117;53.622;9.958;2022-11-20T14:58:00;2.40;29.50
8152;DHT22;4117;53.622;9.958;2022-11-20T15:00:28;2.40;30.80
8152;DHT22;4117;53.622;9.958;2022-11-20T15:02:56;2.40;27.20
8152;DHT22;4117;53.622;9.958;2022-11-20T15:05:25;2.40;28.10
8152;DHT22;4117;53.622;9.958;2022-11-20T15:08:05;2.30;26.70
8152;DHT22;4117;53.622;9.958;2022-11-20T15:10:32;2.40;27.30
8152;DHT22;4117;53.622;9.958;2022-11-20T15:13:03;2.40;29.60
8152;DHT22;4117;53.622;9.958;2022-11-20T15:15:35;2.30;29.20
8152;DHT22;4117;53.622;9.958;2022-11-20T15:18:02;2.30;28.70
8152;DHT22;4117;53.622;9.958;2022-11-20T15:20:31;2.30;28.10
8152;DHT22;4117;53.622;9.958;2022-11-20T15:22:58;2.30;30.00
8152;DHT22;4117;53.622;9.958;2022-11-20T15:25:25;2.30;28.20
8152;DHT22;4117;53.622;9.958;2022-11-20T15:27:55;2.30;30.00
8152;DHT22;4117;53.622;9.958;2022-11-20T15:30:24;2.30;32.60
8152;DHT22;4117;53.622;9.958;2022-11-20T15:32:51;2.30;32.60
8152;DHT22;4117;53.622;9.958;2022-11-20T15:35:18;2.30;32.70
8152;DHT22;4117;53.622;9.958;2022-11-20T15:37:45;2.30;32.60
8152;DHT22;4117;53.622;9.958;2022-11-20T15:40:12;2.20;32.60
8152;DHT22;4117;53.622;9.958;2022-11-20T15:42:39;2.20;32.60
8152;DHT22;4117;53.622;9.958;2022-11-20T15:45:33;2.20;32.90
8152;DHT22;4117;53.622;9.958;2022-11-20T15:48:01;2.20;32.60
8152;DHT22;4117;53.622;9.958;2022-11-20T15:50:34;2.20;32.30
8152;DHT22;4117;53.622;9.958;2022-11-20T15:53:03;2.20;32.60
8152;DHT22;4117;53.622;9.958;2022-11-20T15:55:30;2.20;32.60
8152;DHT22;4117;53.622;9.958;2022-11-20T15:57:58;2.30;35.20
8152;DHT22;4117;53.622;9.958;2022-11-20T16:00:24;2.20;32.60
8152;DHT22;4117;53.622;9.958;2022-11-20T16:02:53;2.20;32.80
8152;DHT22;4117;53.622;9.958;2022-11-20T16:05:20;2.20;34.10
8152;DHT22;4117;53.622;9.958;2022-11-20T16:07:48;2.30;37.10
8152;DHT22;4117;53.622;9.958;2022-11-20T16:10:16;2.20;36.40
8152;DHT22;4117;53.622;9.958;2022-11-20T16:12:43;2.20;36.70
8152;DHT22;4117;53.622;9.958;2022-11-20T16:15:28;2.20;39.80
8152;DHT22;4117;53.622;9.958;2022-11-20T16:18:19;2.20;40.70
8152;DHT22;4117;53.622;9.958;2022-11-20T16:20:47;2.20;41.70
8152;DHT22;4117;53.622;9.958;2022-11-20T16:23:15;2.20;38.80
8152;DHT22;4117;53.622;9.958;2022-11-20T16:25:42;2.20;34.90
8152;DHT22;4117;53.622;9.958;2022-11-20T16:28:10;2.20;33.00
8152;DHT22;4117;53.622;9.958;2022-11-20T16:30:38;2.20;34.10
8152;DHT22;4117;53.622;9.958;2022-11-20T16:33:09;2.20;36.80
8152;DHT22;4117;53.622;9.958;2022-11-20T16:35:38;2.10;32.60
8152;DHT22;4117;53.622;9.958;2022-11-20T16:38:05;2.10;38.60
8152;DHT22;4117;53.622;9.958;2022-11-20T16:40:32;2.20;40.30